Weather observations for the past three days for
Decatur Airport
Metric (Imperial)
Date Time (cdt) Wind (kph) Vis. (km) Weather Sky Cond. Temperature (ºC) Relative Humidity Wind Chill (°C) Heat Index (°C) Pressure Precipitation (cm)
Air Dwpt 6 hour altimeter (cm) sea level (mb) 1 hr 3 hr 6 hr
Max. Min.
01 19:54 S 9 16.09 Fair CLR 29.4 22.2 65% 33 76.15 1014.6
01 18:54 SE 9 16.09 Fair CLR 32.2 23.3 35.6 32.2 59% 37 76.17 1014.7
01 17:54 SW 6 16.09 Fair CLR 35 20.6 43% 38 76.17 1014.8
01 16:54 SW 11 16.09 Fair CLR 35.6 20.6 41% 39 76.17 1014.8
01 15:54 W 11 16.09 Fair CLR 35.6 20 40% 38 76.17 1015.0
01 14:54 W 13 16.09 Fair CLR 35.6 20.6 41% 39 76.2 1015.3
01 13:54 SW 15 16.09 Fair CLR 34.4 21.1 46% 38 76.25 1015.9
01 12:54 SW 13 16.09 Fair CLR 33.3 21.1 33.3 23.3 49% 37 76.3 1016.4
01 11:54 SW 17 16.09 Fair CLR 32.8 21.7 52% 36 76.33 1016.7
01 10:54 W 17 16.09 Fair CLR 31.1 21.1 55% 34 76.33 1017.0
01 09:54 W 20 16.09 Fair CLR 29.4 20.6 59% 32 76.33 1016.8
01 08:54 SW 20 16.09 Fair CLR 27.2 20.6 67% 29 76.33 1016.7
01 07:54 SW 15 16.09 Fair CLR 25 20.6 77% 26 76.33 1016.7
01 06:54 SW 17 16.09 Fair CLR 23.3 20 25.6 23.3 82% 76.28 1016.3
01 05:54 SW 17 16.09 Fair CLR 23.9 20 79% 24 76.25 1015.8
01 04:54 SW 15 16.09 Fair CLR 24.4 20.6 79% 25 76.25 1015.7
01 03:54 SW 15 16.09 Fair CLR 23.9 20 79% 24 76.23 1015.5
01 02:54 SW 13 16.09 Fair CLR 24.4 20 77% 25 76.23 1015.5
01 01:54 SW 17 16.09 Fair CLR 25 19.4 71% 26 76.23 1015.5
01 00:54 SW 15 16.09 Fair CLR 25.6 19.4 31.1 25.6 69% 27 76.23 1015.6
31 23:54 SW 19 16.09 Fair CLR 26.1 20 69% 27 76.23 1015.5
31 22:54 S 19 16.09 Fair CLR 27.2 20 65% 29 76.23 1015.4
31 21:54 S 15 16.09 Fair CLR 27.8 20 63% 29 76.23 1015.3
31 20:54 S 15 16.09 Fair CLR 28.9 20 59% 31 76.17 1014.9
31 19:54 S 15 16.09 Fair CLR 29.4 20.6 59% 32 76.12 1014.2
31 18:54 S 17 16.09 Fair CLR 31.1 20.6 35 31.1 54% 34 76.12 1014.2
31 17:54 S 15 16.09 Fair CLR 33.3 20.6 47% 36 76.12 1014.2
31 16:54 S 19 16.09 Fair CLR 34.4 20 43% 37 76.15 1014.3
31 15:54 S 22 16.09 Fair CLR 35 20 41% 38 76.15 1014.5
31 14:54 S 20 16.09 Fair CLR 34.4 19.4 41% 36 76.17 1014.9
31 13:54 S 22 16.09 Fair CLR 33.9 19.4 42% 36 76.23 1015.5
31 12:54 SW 19 16.09 Fair CLR 32.8 19.4 32.8 21.1 45% 35 76.28 1016.1
31 11:54 SW 19 16.09 Fair CLR 31.7 18.9 47% 33 76.3 1016.6
31 10:54 SW 22 16.09 Fair CLR 30 18.9 51% 31 76.33 1016.8
31 09:54 SW 19 16.09 Fair CLR 28.3 18.3 55% 29 76.3 1016.7
31 08:54 SW 20 16.09 Fair CLR 26.1 17.2 58% 27 76.33 1016.9
31 07:54 SW 17 16.09 Fair CLR 23.3 17.8 71% 76.3 1016.5
31 06:54 SW 11 16.09 Fair CLR 21.1 17.2 23.3 20.6 79% 76.25 1015.9
31 05:54 SW 11 16.09 Fair CLR 21.1 17.2 79% 76.25 1015.8
31 04:54 S 13 16.09 Fair CLR 21.7 16.7 73% 76.23 1015.5
31 03:54 SW 17 16.09 Fair CLR 22.8 16.7 69% 76.2 1015.2
31 02:54 S 9 16.09 Fair CLR 21.7 17.2 76% 76.2 1015.3
31 01:54 S 11 16.09 Fair CLR 22.8 17.2 71% 76.23 1015.6
31 00:54 S 9 16.09 Fair CLR 22.8 17.2 28.3 22.8 71% 76.25 1015.9
30 23:54 S 9 16.09 Fair CLR 24.4 16.7 62% 25 76.25 1015.7
30 22:54 S 17 16.09 Fair CLR 25 16.1 58% 26 76.23 1015.6
30 21:54 S 17 16.09 Fair CLR 25 16.7 60% 26 76.25 1015.8
30 20:54 S 15 16.09 Fair CLR 25.6 17.2 60% 27 76.23 1015.8
30 19:54 S 13 16.09 Fair CLR 26.1 17.8 60% 27 76.2 1015.4
30 18:54 S 11 16.09 Fair CLR 28.3 18.3 32.2 28.3 55% 29 76.23 1015.5
30 17:54 S 15 16.09 Fair CLR 30 16.7 45% 30 76.2 1015.3
30 16:54 S 19 16.09 Fair CLR 30.6 16.7 43% 31 76.2 1015.2
30 15:54 S 20 G 31 16.09 Fair CLR 31.7 15 36% 31 76.23 1015.6
30 14:54 S 15 16.09 Fair CLR 31.1 16.7 42% 31 76.28 1016.3
30 13:54 SW 22 G 33 16.09 Fair CLR 31.1 17.8 45% 32 76.3 1016.5
30 12:54 SW 17 16.09 Fair CLR 30.6 18.3 30.6 20.6 48% 32 76.35 1017.3
30 11:54 SW 24 G 33 16.09 Fair CLR 30 18.3 49% 31 76.4 1017.9
30 10:54 SW 24 G 35 16.09 Fair CLR 28.3 18.9 57% 30 76.38 1017.7
30 09:54 Vrbl 7 16.09 Fair CLR 25.6 18.9 67% 27 76.35 1017.5
30 08:54 S 17 16.09 Fair CLR 23.3 17.8 71% 76.33 1017.2
30 07:54 S 13 16.09 A Few Clouds FEW120 21.7 17.2 76% 76.35 1017.2
30 06:54 S 7 16.09 Overcast OVC110 20.6 16.7 21.1 20 78% 76.33 1017.2
30 05:54 S 15 16.09 A Few Clouds FEW120 20.6 16.7 78% 76.3 1016.6
30 04:54 S 13 16.09 Fair CLR 20.6 16.7 78% 76.3 1016.7
30 03:54 S 15 16.09 Fair CLR 20 17.2 84% 76.3 1016.8
30 02:54 S 15 16.09 Fair CLR 21.1 17.2 79% 76.33 1017.0
30 01:54 S 11 16.09 Fair CLR 21.1 17.2 79% 76.33 1017.1
30 00:54 S 7 16.09 Fair CLR 20.6 17.2 25.6 20.6 81% 76.38 1017.6
29 23:54 S 9 16.09 Fair CLR 21.1 17.2 79% 76.38 1017.6
29 22:54 SE 11 16.09 Fair CLR 21.1 17.2 79% 76.38 1017.6
29 21:54 SE 11 16.09 Fair CLR 21.7 17.8 79% 76.38 1017.7
Date Time (cdt) Wind (kph) Vis. (km) Weather Sky Cond. Air Dwpt Max. Min. Relative Humidity Wind Chill (°C) Heat Index (°C) altimeter (cm) sea level (mb) 1 hr 3 hr 6 hr
6 hour
Temperature (ºC) Pressure Precipitation (cm)